sensor_id;sensor_type;location;lat;lon;timestamp;temperature;humidity
38183;DHT22;23991;52.430;10.586;2023-06-19T00:00:15;23.20;49.10
38183;DHT22;23991;52.430;10.586;2023-06-19T00:02:42;23.20;48.90
38183;DHT22;23991;52.430;10.586;2023-06-19T00:05:09;23.20;48.60
38183;DHT22;23991;52.430;10.586;2023-06-19T00:07:36;23.10;48.20
38183;DHT22;23991;52.430;10.586;2023-06-19T00:10:02;23.10;47.80
38183;DHT22;23991;52.430;10.586;2023-06-19T00:12:27;23.10;47.50
38183;DHT22;23991;52.430;10.586;2023-06-19T00:14:53;23.10;47.40
38183;DHT22;23991;52.430;10.586;2023-06-19T00:17:18;23.10;47.40
38183;DHT22;23991;52.430;10.586;2023-06-19T00:19:44;23.10;47.50
38183;DHT22;23991;52.430;10.586;2023-06-19T00:22:10;23.10;47.60
38183;DHT22;23991;52.430;10.586;2023-06-19T00:24:35;23.10;47.90
38183;DHT22;23991;52.430;10.586;2023-06-19T00:27:01;23.00;47.90
38183;DHT22;23991;52.430;10.586;2023-06-19T00:29:29;23.00;48.10
38183;DHT22;23991;52.430;10.586;2023-06-19T00:31:54;23.00;48.30
38183;DHT22;23991;52.430;10.586;2023-06-19T00:34:20;23.00;48.60
38183;DHT22;23991;52.430;10.586;2023-06-19T00:36:46;23.00;48.90
38183;DHT22;23991;52.430;10.586;2023-06-19T00:39:12;22.90;49.10
38183;DHT22;23991;52.430;10.586;2023-06-19T00:41:37;22.90;49.40
38183;DHT22;23991;52.430;10.586;2023-06-19T00:44:03;22.90;49.80
38183;DHT22;23991;52.430;10.586;2023-06-19T00:46:29;22.80;50.10
38183;DHT22;23991;52.430;10.586;2023-06-19T00:48:55;22.80;50.30
38183;DHT22;23991;52.430;10.586;2023-06-19T00:51:21;22.70;50.10
38183;DHT22;23991;52.430;10.586;2023-06-19T00:53:47;22.70;49.80
38183;DHT22;23991;52.430;10.586;2023-06-19T00:56:12;22.70;49.80
38183;DHT22;23991;52.430;10.586;2023-06-19T00:58:38;22.70;49.40
38183;DHT22;23991;52.430;10.586;2023-06-19T01:01:04;22.60;49.60
38183;DHT22;23991;52.430;10.586;2023-06-19T01:03:30;22.60;49.30
38183;DHT22;23991;52.430;10.586;2023-06-19T01:05:56;22.60;48.90
38183;DHT22;23991;52.430;10.586;2023-06-19T01:08:43;22.60;48.70
38183;DHT22;23991;52.430;10.586;2023-06-19T01:11:15;22.60;49.00
38183;DHT22;23991;52.430;10.586;2023-06-19T01:13:52;22.50;49.10
38183;DHT22;23991;52.430;10.586;2023-06-19T01:16:20;22.50;48.90
38183;DHT22;23991;52.430;10.586;2023-06-19T01:18:46;22.50;48.80
38183;DHT22;23991;52.430;10.586;2023-06-19T01:21:15;22.50;48.80
38183;DHT22;23991;52.430;10.586;2023-06-19T01:23:41;22.50;48.80
38183;DHT22;23991;52.430;10.586;2023-06-19T01:26:08;22.50;48.80
38183;DHT22;23991;52.430;10.586;2023-06-19T01:28:35;22.40;48.70
38183;DHT22;23991;52.430;10.586;2023-06-19T01:34:01;22.40;48.40
38183;DHT22;23991;52.430;10.586;2023-06-19T01:36:28;22.40;48.30
38183;DHT22;23991;52.430;10.586;2023-06-19T01:38:56;22.40;48.40
38183;DHT22;23991;52.430;10.586;2023-06-19T01:41:23;22.40;48.30
38183;DHT22;23991;52.430;10.586;2023-06-19T01:43:49;22.50;48.20
38183;DHT22;23991;52.430;10.586;2023-06-19T01:46:16;22.40;48.30
38183;DHT22;23991;52.430;10.586;2023-06-19T01:48:41;22.40;48.10
38183;DHT22;23991;52.430;10.586;2023-06-19T01:51:07;22.40;48.00
38183;DHT22;23991;52.430;10.586;2023-06-19T01:53:33;22.40;48.10
38183;DHT22;23991;52.430;10.586;2023-06-19T01:56:00;22.50;48.10
38183;DHT22;23991;52.430;10.586;2023-06-19T01:58:26;22.50;48.30
38183;DHT22;23991;52.430;10.586;2023-06-19T02:00:51;22.40;48.10
38183;DHT22;23991;52.430;10.586;2023-06-19T02:03:17;22.50;48.20
38183;DHT22;23991;52.430;10.586;2023-06-19T02:05:43;22.50;48.20
38183;DHT22;23991;52.430;10.586;2023-06-19T02:08:09;22.50;48.20
38183;DHT22;23991;52.430;10.586;2023-06-19T02:10:34;22.40;48.10
38183;DHT22;23991;52.430;10.586;2023-06-19T02:13:00;22.40;48.20
38183;DHT22;23991;52.430;10.586;2023-06-19T02:15:26;22.40;48.20
38183;DHT22;23991;52.430;10.586;2023-06-19T02:17:54;22.50;48.10
38183;DHT22;23991;52.430;10.586;2023-06-19T02:20:20;22.40;48.10
38183;DHT22;23991;52.430;10.586;2023-06-19T02:22:46;22.40;48.30
38183;DHT22;23991;52.430;10.586;2023-06-19T02:25:12;22.40;48.20
38183;DHT22;23991;52.430;10.586;2023-06-19T02:27:37;22.40;48.20
38183;DHT22;23991;52.430;10.586;2023-06-19T02:30:04;22.40;48.10
38183;DHT22;23991;52.430;10.586;2023-06-19T02:32:30;22.40;48.20
38183;DHT22;23991;52.430;10.586;2023-06-19T02:34:56;22.40;48.30
38183;DHT22;23991;52.430;10.586;2023-06-19T02:37:21;22.40;48.50
38183;DHT22;23991;52.430;10.586;2023-06-19T02:39:47;22.40;48.50
38183;DHT22;23991;52.430;10.586;2023-06-19T02:42:12;22.40;48.70
38183;DHT22;23991;52.430;10.586;2023-06-19T02:44:38;22.40;48.90
38183;DHT22;23991;52.430;10.586;2023-06-19T02:47:04;22.30;49.00
38183;DHT22;23991;52.430;10.586;2023-06-19T02:49:30;22.40;49.60
38183;DHT22;23991;52.430;10.586;2023-06-19T02:51:55;22.40;49.40
38183;DHT22;23991;52.430;10.586;2023-06-19T02:54:21;22.40;49.50
38183;DHT22;23991;52.430;10.586;2023-06-19T02:56:46;22.30;49.90
38183;DHT22;23991;52.430;10.586;2023-06-19T02:59:12;22.30;49.90
38183;DHT22;23991;52.430;10.586;2023-06-19T03:01:38;22.30;49.70
38183;DHT22;23991;52.430;10.586;2023-06-19T03:04:03;22.30;49.50
38183;DHT22;23991;52.430;10.586;2023-06-19T03:06:29;22.30;49.50
38183;DHT22;23991;52.430;10.586;2023-06-19T03:08:56;22.30;49.40
38183;DHT22;23991;52.430;10.586;2023-06-19T03:11:22;22.30;49.50
38183;DHT22;23991;52.430;10.586;2023-06-19T03:13:52;22.30;49.70
38183;DHT22;23991;52.430;10.586;2023-06-19T03:16:18;22.30;50.00
38183;DHT22;23991;52.430;10.586;2023-06-19T03:18:44;22.30;50.40
38183;DHT22;23991;52.430;10.586;2023-06-19T03:21:11;22.30;50.70
38183;DHT22;23991;52.430;10.586;2023-06-19T03:23:37;22.30;50.40
38183;DHT22;23991;52.430;10.586;2023-06-19T03:26:02;22.30;50.10
38183;DHT22;23991;52.430;10.586;2023-06-19T03:28:28;22.30;50.10
38183;DHT22;23991;52.430;10.586;2023-06-19T03:30:55;22.30;50.10
38183;DHT22;23991;52.430;10.586;2023-06-19T03:33:22;22.40;49.90
38183;DHT22;23991;52.430;10.586;2023-06-19T03:35:48;22.40;50.20
38183;DHT22;23991;52.430;10.586;2023-06-19T03:38:13;22.50;50.60
38183;DHT22;23991;52.430;10.586;2023-06-19T03:40:39;22.50;50.10
38183;DHT22;23991;52.430;10.586;2023-06-19T03:43:05;22.50;50.00
38183;DHT22;23991;52.430;10.586;2023-06-19T03:45:30;22.60;49.80
38183;DHT22;23991;52.430;10.586;2023-06-19T03:47:56;22.70;49.50
38183;DHT22;23991;52.430;10.586;2023-06-19T03:50:22;22.70;49.70
38183;DHT22;23991;52.430;10.586;2023-06-19T03:52:48;22.80;49.50
38183;DHT22;23991;52.430;10.586;2023-06-19T03:55:13;22.80;49.20
38183;DHT22;23991;52.430;10.586;2023-06-19T03:57:39;22.80;48.80
38183;DHT22;23991;52.430;10.586;2023-06-19T04:00:05;22.90;48.70
38183;DHT22;23991;52.430;10.586;2023-06-19T04:02:36;22.90;48.70
38183;DHT22;23991;52.430;10.586;2023-06-19T04:05:02;23.00;48.20
38183;DHT22;23991;52.430;10.586;2023-06-19T04:07:31;23.00;48.10
38183;DHT22;23991;52.430;10.586;2023-06-19T04:09:57;23.00;49.20
38183;DHT22;23991;52.430;10.586;2023-06-19T04:12:22;23.00;49.50
38183;DHT22;23991;52.430;10.586;2023-06-19T04:14:48;22.90;49.80
38183;DHT22;23991;52.430;10.586;2023-06-19T04:17:14;23.00;49.60
38183;DHT22;23991;52.430;10.586;2023-06-19T04:19:40;23.00;49.80
38183;DHT22;23991;52.430;10.586;2023-06-19T04:22:06;23.00;50.40
38183;DHT22;23991;52.430;10.586;2023-06-19T04:24:31;23.00;51.30
38183;DHT22;23991;52.430;10.586;2023-06-19T04:26:57;23.00;52.20
38183;DHT22;23991;52.430;10.586;2023-06-19T04:29:22;23.00;52.80
38183;DHT22;23991;52.430;10.586;2023-06-19T04:31:48;23.10;53.10
38183;DHT22;23991;52.430;10.586;2023-06-19T04:34:18;23.10;52.50
38183;DHT22;23991;52.430;10.586;2023-06-19T04:36:47;23.30;53.00
38183;DHT22;23991;52.430;10.586;2023-06-19T04:39:13;23.30;52.10
38183;DHT22;23991;52.430;10.586;2023-06-19T04:41:39;23.30;51.60
38183;DHT22;23991;52.430;10.586;2023-06-19T04:44:06;23.30;51.60
38183;DHT22;23991;52.430;10.586;2023-06-19T04:46:33;23.40;51.80
38183;DHT22;23991;52.430;10.586;2023-06-19T04:48:58;23.40;51.90
38183;DHT22;23991;52.430;10.586;2023-06-19T04:51:24;23.50;52.60
38183;DHT22;23991;52.430;10.586;2023-06-19T04:53:51;23.50;53.70
38183;DHT22;23991;52.430;10.586;2023-06-19T04:56:20;23.50;54.20
38183;DHT22;23991;52.430;10.586;2023-06-19T04:58:45;23.50;54.80
38183;DHT22;23991;52.430;10.586;2023-06-19T05:01:12;23.50;54.20
38183;DHT22;23991;52.430;10.586;2023-06-19T05:03:39;23.60;54.00
38183;DHT22;23991;52.430;10.586;2023-06-19T05:06:05;23.60;53.60
38183;DHT22;23991;52.430;10.586;2023-06-19T05:08:34;23.60;52.90
38183;DHT22;23991;52.430;10.586;2023-06-19T05:11:02;23.70;51.80
38183;DHT22;23991;52.430;10.586;2023-06-19T05:13:31;23.60;51.70
38183;DHT22;23991;52.430;10.586;2023-06-19T05:15:56;23.70;50.90
38183;DHT22;23991;52.430;10.586;2023-06-19T05:18:22;23.70;51.10
38183;DHT22;23991;52.430;10.586;2023-06-19T05:20:47;23.70;51.10
38183;DHT22;23991;52.430;10.586;2023-06-19T05:23:13;23.70;50.80
38183;DHT22;23991;52.430;10.586;2023-06-19T05:25:41;23.70;50.90
38183;DHT22;23991;52.430;10.586;2023-06-19T05:28:09;23.70;50.00
38183;DHT22;23991;52.430;10.586;2023-06-19T05:30:34;23.80;49.80
38183;DHT22;23991;52.430;10.586;2023-06-19T05:33:00;23.90;50.30
38183;DHT22;23991;52.430;10.586;2023-06-19T05:35:26;23.80;50.50
38183;DHT22;23991;52.430;10.586;2023-06-19T05:37:52;23.80;51.10
38183;DHT22;23991;52.430;10.586;2023-06-19T05:40:17;23.80;51.00
38183;DHT22;23991;52.430;10.586;2023-06-19T05:42:43;23.90;51.40
38183;DHT22;23991;52.430;10.586;2023-06-19T05:45:08;23.90;51.40
38183;DHT22;23991;52.430;10.586;2023-06-19T05:47:34;24.00;51.30
38183;DHT22;23991;52.430;10.586;2023-06-19T05:50:00;24.00;51.00
38183;DHT22;23991;52.430;10.586;2023-06-19T05:52:25;24.10;50.50
38183;DHT22;23991;52.430;10.586;2023-06-19T05:54:51;24.10;50.30
38183;DHT22;23991;52.430;10.586;2023-06-19T05:57:19;24.10;51.40
38183;DHT22;23991;52.430;10.586;2023-06-19T05:59:52;24.20;51.60
38183;DHT22;23991;52.430;10.586;2023-06-19T06:02:19;24.30;51.40
38183;DHT22;23991;52.430;10.586;2023-06-19T06:04:45;24.30;51.80
38183;DHT22;23991;52.430;10.586;2023-06-19T06:07:11;24.20;52.50
38183;DHT22;23991;52.430;10.586;2023-06-19T06:09:36;24.20;51.90
38183;DHT22;23991;52.430;10.586;2023-06-19T06:12:02;24.20;51.20
38183;DHT22;23991;52.430;10.586;2023-06-19T06:14:28;24.30;51.50
38183;DHT22;23991;52.430;10.586;2023-06-19T06:16:53;24.50;50.70
38183;DHT22;23991;52.430;10.586;2023-06-19T06:19:22;24.40;50.40
38183;DHT22;23991;52.430;10.586;2023-06-19T06:21:48;24.50;50.40
38183;DHT22;23991;52.430;10.586;2023-06-19T06:24:14;24.50;51.70
38183;DHT22;23991;52.430;10.586;2023-06-19T06:26:40;24.50;51.80
38183;DHT22;23991;52.430;10.586;2023-06-19T06:29:05;24.40;51.90
38183;DHT22;23991;52.430;10.586;2023-06-19T06:31:31;24.60;51.80
38183;DHT22;23991;52.430;10.586;2023-06-19T06:33:57;24.70;51.50
38183;DHT22;23991;52.430;10.586;2023-06-19T06:36:22;24.70;51.00
38183;DHT22;23991;52.430;10.586;2023-06-19T06:38:48;24.80;51.10
38183;DHT22;23991;52.430;10.586;2023-06-19T06:41:13;24.70;51.40
38183;DHT22;23991;52.430;10.586;2023-06-19T07:36:21;27.30;45.20
38183;DHT22;23991;52.430;10.586;2023-06-19T07:38:46;27.40;44.90
38183;DHT22;23991;52.430;10.586;2023-06-19T07:41:12;27.70;43.80
38183;DHT22;23991;52.430;10.586;2023-06-19T07:43:38;28.20;42.80
38183;DHT22;23991;52.430;10.586;2023-06-19T07:46:04;28.70;41.70
38183;DHT22;23991;52.430;10.586;2023-06-19T07:48:29;28.60;41.80
38183;DHT22;23991;52.430;10.586;2023-06-19T07:50:55;29.10;40.50
38183;DHT22;23991;52.430;10.586;2023-06-19T07:53:21;29.20;40.50
38183;DHT22;23991;52.430;10.586;2023-06-19T07:55:46;29.20;39.80
38183;DHT22;23991;52.430;10.586;2023-06-19T07:58:12;29.30;40.40
38183;DHT22;23991;52.430;10.586;2023-06-19T08:00:38;29.30;40.40
38183;DHT22;23991;52.430;10.586;2023-06-19T08:03:04;29.40;39.70
38183;DHT22;23991;52.430;10.586;2023-06-19T08:05:30;29.30;40.30
38183;DHT22;23991;52.430;10.586;2023-06-19T08:07:56;29.50;39.40
38183;DHT22;23991;52.430;10.586;2023-06-19T08:10:22;29.40;39.90
38183;DHT22;23991;52.430;10.586;2023-06-19T08:12:48;29.50;40.40
38183;DHT22;23991;52.430;10.586;2023-06-19T08:15:13;29.60;40.70
38183;DHT22;23991;52.430;10.586;2023-06-19T08:17:39;29.60;40.70
38183;DHT22;23991;52.430;10.586;2023-06-19T08:20:06;29.40;41.30
38183;DHT22;23991;52.430;10.586;2023-06-19T08:22:32;29.60;41.30
38183;DHT22;23991;52.430;10.586;2023-06-19T08:24:58;29.70;41.20
38183;DHT22;23991;52.430;10.586;2023-06-19T08:27:23;29.90;40.70
38183;DHT22;23991;52.430;10.586;2023-06-19T08:29:49;30.20;41.00
38183;DHT22;23991;52.430;10.586;2023-06-19T08:32:14;30.20;41.30
38183;DHT22;23991;52.430;10.586;2023-06-19T08:34:40;31.00;39.70
38183;DHT22;23991;52.430;10.586;2023-06-19T08:37:06;31.50;38.50
38183;DHT22;23991;52.430;10.586;2023-06-19T08:39:32;32.30;36.40
38183;DHT22;23991;52.430;10.586;2023-06-19T08:41:58;32.80;35.80
38183;DHT22;23991;52.430;10.586;2023-06-19T08:44:23;33.20;35.20
38183;DHT22;23991;52.430;10.586;2023-06-19T08:46:49;33.50;34.60
38183;DHT22;23991;52.430;10.586;2023-06-19T08:49:14;33.60;34.40
38183;DHT22;23991;52.430;10.586;2023-06-19T08:51:41;33.80;34.50
38183;DHT22;23991;52.430;10.586;2023-06-19T08:54:07;34.00;34.90
38183;DHT22;23991;52.430;10.586;2023-06-19T08:56:34;34.10;34.40
38183;DHT22;23991;52.430;10.586;2023-06-19T08:59:11;34.20;33.60
38183;DHT22;23991;52.430;10.586;2023-06-19T09:01:37;34.40;33.20
38183;DHT22;23991;52.430;10.586;2023-06-19T09:04:11;34.70;33.30
38183;DHT22;23991;52.430;10.586;2023-06-19T09:06:49;34.80;33.20
38183;DHT22;23991;52.430;10.586;2023-06-19T09:09:16;35.00;32.10
38183;DHT22;23991;52.430;10.586;2023-06-19T09:11:41;35.20;31.70
38183;DHT22;23991;52.430;10.586;2023-06-19T09:14:10;35.70;30.80
38183;DHT22;23991;52.430;10.586;2023-06-19T09:16:40;35.70;29.80
38183;DHT22;23991;52.430;10.586;2023-06-19T09:19:06;36.10;29.60
38183;DHT22;23991;52.430;10.586;2023-06-19T09:21:34;36.50;28.80
38183;DHT22;23991;52.430;10.586;2023-06-19T09:24:08;36.80;27.90
38183;DHT22;23991;52.430;10.586;2023-06-19T09:26:34;37.20;27.60
38183;DHT22;23991;52.430;10.586;2023-06-19T09:29:15;37.20;27.20
38183;DHT22;23991;52.430;10.586;2023-06-19T09:31:42;37.50;26.70
38183;DHT22;23991;52.430;10.586;2023-06-19T09:34:08;37.90;26.10
38183;DHT22;23991;52.430;10.586;2023-06-19T09:36:35;37.90;26.30
38183;DHT22;23991;52.430;10.586;2023-06-19T09:39:02;38.50;25.30
38183;DHT22;23991;52.430;10.586;2023-06-19T09:41:29;38.80;25.00
38183;DHT22;23991;52.430;10.586;2023-06-19T09:43:58;39.30;24.90
38183;DHT22;23991;52.430;10.586;2023-06-19T09:46:32;39.60;23.30
38183;DHT22;23991;52.430;10.586;2023-06-19T09:49:01;39.80;24.10
38183;DHT22;23991;52.430;10.586;2023-06-19T09:51:40;40.10;22.70
38183;DHT22;23991;52.430;10.586;2023-06-19T09:54:07;40.10;22.40
38183;DHT22;23991;52.430;10.586;2023-06-19T09:56:33;40.00;23.30
38183;DHT22;23991;52.430;10.586;2023-06-19T09:58:59;40.20;23.80
38183;DHT22;23991;52.430;10.586;2023-06-19T10:01:27;40.30;23.30
38183;DHT22;23991;52.430;10.586;2023-06-19T10:04:03;40.60;23.10
38183;DHT22;23991;52.430;10.586;2023-06-19T10:06:28;40.50;22.70
38183;DHT22;23991;52.430;10.586;2023-06-19T10:08:55;40.50;22.30
38183;DHT22;23991;52.430;10.586;2023-06-19T10:11:20;40.20;22.90
38183;DHT22;23991;52.430;10.586;2023-06-19T10:13:47;40.10;23.30
38183;DHT22;23991;52.430;10.586;2023-06-19T10:16:22;39.90;22.90
38183;DHT22;23991;52.430;10.586;2023-06-19T10:18:48;39.60;23.50
38183;DHT22;23991;52.430;10.586;2023-06-19T10:21:18;39.60;23.10
38183;DHT22;23991;52.430;10.586;2023-06-19T10:23:53;39.80;22.80
38183;DHT22;23991;52.430;10.586;2023-06-19T10:26:18;40.00;23.10
38183;DHT22;23991;52.430;10.586;2023-06-19T10:28:47;39.60;23.50
38183;DHT22;23991;52.430;10.586;2023-06-19T10:31:15;39.60;23.30
38183;DHT22;23991;52.430;10.586;2023-06-19T10:33:43;39.70;23.50
38183;DHT22;23991;52.430;10.586;2023-06-19T10:36:20;39.90;23.40
38183;DHT22;23991;52.430;10.586;2023-06-19T10:38:47;40.20;22.70
38183;DHT22;23991;52.430;10.586;2023-06-19T10:41:17;41.00;22.30
38183;DHT22;23991;52.430;10.586;2023-06-19T10:43:56;41.10;22.00
38183;DHT22;23991;52.430;10.586;2023-06-19T10:46:24;41.40;22.30
38183;DHT22;23991;52.430;10.586;2023-06-19T10:48:50;41.20;21.90
38183;DHT22;23991;52.430;10.586;2023-06-19T10:51:19;41.30;22.00
38183;DHT22;23991;52.430;10.586;2023-06-19T10:53:45;41.80;22.40
38183;DHT22;23991;52.430;10.586;2023-06-19T10:56:11;41.50;22.80
38183;DHT22;23991;52.430;10.586;2023-06-19T10:58:36;41.60;22.40
38183;DHT22;23991;52.430;10.586;2023-06-19T11:01:02;41.50;22.50
38183;DHT22;23991;52.430;10.586;2023-06-19T11:03:28;41.40;22.60
38183;DHT22;23991;52.430;10.586;2023-06-19T11:05:54;41.30;22.70
38183;DHT22;23991;52.430;10.586;2023-06-19T11:08:21;41.20;23.10
38183;DHT22;23991;52.430;10.586;2023-06-19T11:10:48;41.20;23.40
38183;DHT22;23991;52.430;10.586;2023-06-19T11:13:19;41.10;23.30
38183;DHT22;23991;52.430;10.586;2023-06-19T11:15:45;41.00;23.50
38183;DHT22;23991;52.430;10.586;2023-06-19T11:18:15;41.00;24.30
38183;DHT22;23991;52.430;10.586;2023-06-19T11:20:48;41.20;24.00
38183;DHT22;23991;52.430;10.586;2023-06-19T11:23:16;41.40;23.50
38183;DHT22;23991;52.430;10.586;2023-06-19T11:25:42;41.20;23.40
38183;DHT22;23991;52.430;10.586;2023-06-19T11:28:13;41.10;23.70
38183;DHT22;23991;52.430;10.586;2023-06-19T11:30:39;40.80;23.80
38183;DHT22;23991;52.430;10.586;2023-06-19T11:33:16;40.60;23.40
38183;DHT22;23991;52.430;10.586;2023-06-19T11:35:47;40.10;24.50
38183;DHT22;23991;52.430;10.586;2023-06-19T11:38:17;40.10;24.30
38183;DHT22;23991;52.430;10.586;2023-06-19T11:40:43;40.10;24.60
38183;DHT22;23991;52.430;10.586;2023-06-19T11:43:08;40.10;24.70
38183;DHT22;23991;52.430;10.586;2023-06-19T11:45:45;40.40;24.60
38183;DHT22;23991;52.430;10.586;2023-06-19T11:48:11;40.40;23.10
38183;DHT22;23991;52.430;10.586;2023-06-19T11:50:38;40.30;23.50
38183;DHT22;23991;52.430;10.586;2023-06-19T11:53:03;40.70;23.00
38183;DHT22;23991;52.430;10.586;2023-06-19T11:55:29;41.00;23.90
38183;DHT22;23991;52.430;10.586;2023-06-19T11:57:55;41.10;23.30
38183;DHT22;23991;52.430;10.586;2023-06-19T12:00:20;41.20;23.40
38183;DHT22;23991;52.430;10.586;2023-06-19T12:02:46;41.10;23.30
38183;DHT22;23991;52.430;10.586;2023-06-19T12:05:12;41.20;23.10
38183;DHT22;23991;52.430;10.586;2023-06-19T12:07:39;41.10;23.70
38183;DHT22;23991;52.430;10.586;2023-06-19T12:10:05;41.00;23.30
38183;DHT22;23991;52.430;10.586;2023-06-19T12:12:37;40.80;23.80
38183;DHT22;23991;52.430;10.586;2023-06-19T12:15:04;41.10;23.80
38183;DHT22;23991;52.430;10.586;2023-06-19T12:17:31;41.30;24.40
38183;DHT22;23991;52.430;10.586;2023-06-19T12:19:56;41.20;24.70
38183;DHT22;23991;52.430;10.586;2023-06-19T12:22:22;41.00;25.00
38183;DHT22;23991;52.430;10.586;2023-06-19T12:24:48;40.80;25.60
38183;DHT22;23991;52.430;10.586;2023-06-19T12:27:14;40.90;25.60
38183;DHT22;23991;52.430;10.586;2023-06-19T12:29:39;40.70;25.70
38183;DHT22;23991;52.430;10.586;2023-06-19T12:32:05;40.70;25.60
38183;DHT22;23991;52.430;10.586;2023-06-19T12:34:31;40.90;25.40
38183;DHT22;23991;52.430;10.586;2023-06-19T12:36:56;41.30;25.00
38183;DHT22;23991;52.430;10.586;2023-06-19T12:39:25;41.60;24.70
38183;DHT22;23991;52.430;10.586;2023-06-19T12:41:51;41.70;24.50
38183;DHT22;23991;52.430;10.586;2023-06-19T12:44:17;41.80;24.70
38183;DHT22;23991;52.430;10.586;2023-06-19T12:46:42;41.80;24.30
38183;DHT22;23991;52.430;10.586;2023-06-19T12:49:08;41.50;24.40
38183;DHT22;23991;52.430;10.586;2023-06-19T12:51:34;41.30;25.00
38183;DHT22;23991;52.430;10.586;2023-06-19T12:53:59;41.30;25.10
38183;DHT22;23991;52.430;10.586;2023-06-19T12:56:25;41.50;24.90
38183;DHT22;23991;52.430;10.586;2023-06-19T12:58:50;41.30;24.70
38183;DHT22;23991;52.430;10.586;2023-06-19T13:01:16;41.60;24.40
38183;DHT22;23991;52.430;10.586;2023-06-19T13:03:41;41.80;23.60
38183;DHT22;23991;52.430;10.586;2023-06-19T13:06:07;41.90;23.50
38183;DHT22;23991;52.430;10.586;2023-06-19T13:08:33;42.10;23.70
38183;DHT22;23991;52.430;10.586;2023-06-19T13:10:58;42.20;23.70
38183;DHT22;23991;52.430;10.586;2023-06-19T13:13:24;42.40;23.40
38183;DHT22;23991;52.430;10.586;2023-06-19T13:15:49;42.20;23.40
38183;DHT22;23991;52.430;10.586;2023-06-19T13:18:15;42.30;23.30
38183;DHT22;23991;52.430;10.586;2023-06-19T13:20:40;42.00;23.90
38183;DHT22;23991;52.430;10.586;2023-06-19T13:23:06;41.70;24.00
38183;DHT22;23991;52.430;10.586;2023-06-19T13:25:32;41.20;24.10
38183;DHT22;23991;52.430;10.586;2023-06-19T13:27:58;41.00;24.90
38183;DHT22;23991;52.430;10.586;2023-06-19T13:30:23;41.20;24.60
38183;DHT22;23991;52.430;10.586;2023-06-19T13:32:49;41.10;24.60
38183;DHT22;23991;52.430;10.586;2023-06-19T13:35:14;41.10;24.80
38183;DHT22;23991;52.430;10.586;2023-06-19T13:37:40;40.70;25.50
38183;DHT22;23991;52.430;10.586;2023-06-19T13:40:06;40.50;25.30
38183;DHT22;23991;52.430;10.586;2023-06-19T13:42:33;40.60;24.90
38183;DHT22;23991;52.430;10.586;2023-06-19T13:45:01;41.00;24.90
38183;DHT22;23991;52.430;10.586;2023-06-19T13:47:27;41.00;24.90
38183;DHT22;23991;52.430;10.586;2023-06-19T13:49:53;41.10;24.90
38183;DHT22;23991;52.430;10.586;2023-06-19T13:52:18;40.80;25.00
38183;DHT22;23991;52.430;10.586;2023-06-19T13:54:44;41.20;24.80
38183;DHT22;23991;52.430;10.586;2023-06-19T13:57:10;41.50;24.20
38183;DHT22;23991;52.430;10.586;2023-06-19T13:59:35;41.60;24.50
38183;DHT22;23991;52.430;10.586;2023-06-19T14:02:01;41.30;24.10
38183;DHT22;23991;52.430;10.586;2023-06-19T14:04:27;41.00;23.90
38183;DHT22;23991;52.430;10.586;2023-06-19T14:06:52;41.00;24.30
38183;DHT22;23991;52.430;10.586;2023-06-19T14:09:20;41.20;24.00
38183;DHT22;23991;52.430;10.586;2023-06-19T14:11:46;41.20;24.20
38183;DHT22;23991;52.430;10.586;2023-06-19T14:14:11;41.30;23.50
38183;DHT22;23991;52.430;10.586;2023-06-19T14:16:37;41.60;23.10
38183;DHT22;23991;52.430;10.586;2023-06-19T14:19:02;41.60;23.40
38183;DHT22;23991;52.430;10.586;2023-06-19T14:21:28;41.70;23.00
38183;DHT22;23991;52.430;10.586;2023-06-19T14:23:54;41.60;23.40
38183;DHT22;23991;52.430;10.586;2023-06-19T14:26:19;41.90;23.30
38183;DHT22;23991;52.430;10.586;2023-06-19T14:28:45;42.10;23.10
38183;DHT22;23991;52.430;10.586;2023-06-19T14:31:11;42.10;23.10
38183;DHT22;23991;52.430;10.586;2023-06-19T14:33:36;42.20;22.40
38183;DHT22;23991;52.430;10.586;2023-06-19T14:36:03;42.40;22.30
38183;DHT22;23991;52.430;10.586;2023-06-19T14:38:29;42.30;22.30
38183;DHT22;23991;52.430;10.586;2023-06-19T14:40:59;42.10;22.60
38183;DHT22;23991;52.430;10.586;2023-06-19T14:43:25;42.10;22.80
38183;DHT22;23991;52.430;10.586;2023-06-19T14:45:50;42.10;23.10
38183;DHT22;23991;52.430;10.586;2023-06-19T14:48:16;41.90;23.10
38183;DHT22;23991;52.430;10.586;2023-06-19T14:50:43;41.70;23.20
38183;DHT22;23991;52.430;10.586;2023-06-19T14:53:08;41.70;23.10
38183;DHT22;23991;52.430;10.586;2023-06-19T14:55:34;41.80;23.10
38183;DHT22;23991;52.430;10.586;2023-06-19T14:57:59;41.70;23.60
38183;DHT22;23991;52.430;10.586;2023-06-19T15:00:25;41.80;23.40
38183;DHT22;23991;52.430;10.586;2023-06-19T15:02:50;41.60;23.60
38183;DHT22;23991;52.430;10.586;2023-06-19T15:05:16;41.60;23.70
38183;DHT22;23991;52.430;10.586;2023-06-19T15:07:42;41.40;23.90
38183;DHT22;23991;52.430;10.586;2023-06-19T15:10:07;41.30;24.20
38183;DHT22;23991;52.430;10.586;2023-06-19T15:12:33;41.00;24.40
38183;DHT22;23991;52.430;10.586;2023-06-19T15:15:00;41.00;24.70
38183;DHT22;23991;52.430;10.586;2023-06-19T15:17:26;40.80;25.20
38183;DHT22;23991;52.430;10.586;2023-06-19T15:19:51;40.70;25.20
38183;DHT22;23991;52.430;10.586;2023-06-19T15:22:17;40.60;25.00
38183;DHT22;23991;52.430;10.586;2023-06-19T15:24:42;40.50;25.50
38183;DHT22;23991;52.430;10.586;2023-06-19T15:27:08;40.60;25.30
38183;DHT22;23991;52.430;10.586;2023-06-19T15:29:33;40.60;25.30
38183;DHT22;23991;52.430;10.586;2023-06-19T15:32:00;40.30;25.60
38183;DHT22;23991;52.430;10.586;2023-06-19T15:34:26;40.20;25.90
38183;DHT22;23991;52.430;10.586;2023-06-19T15:36:52;40.30;25.60
38183;DHT22;23991;52.430;10.586;2023-06-19T15:39:17;40.10;25.70
38183;DHT22;23991;52.430;10.586;2023-06-19T15:41:43;39.90;25.80
38183;DHT22;23991;52.430;10.586;2023-06-19T15:44:10;39.50;26.10
38183;DHT22;23991;52.430;10.586;2023-06-19T15:46:36;39.50;26.00
38183;DHT22;23991;52.430;10.586;2023-06-19T15:49:01;39.40;25.90
38183;DHT22;23991;52.430;10.586;2023-06-19T15:51:27;39.10;26.40
38183;DHT22;23991;52.430;10.586;2023-06-19T15:53:53;38.80;26.80
38183;DHT22;23991;52.430;10.586;2023-06-19T15:56:19;38.60;26.80
38183;DHT22;23991;52.430;10.586;2023-06-19T15:58:44;38.20;27.20
38183;DHT22;23991;52.430;10.586;2023-06-19T16:01:10;38.10;27.50
38183;DHT22;23991;52.430;10.586;2023-06-19T16:03:35;38.10;27.60
38183;DHT22;23991;52.430;10.586;2023-06-19T16:06:01;38.10;27.30